createdAt,value
2022-08-24T00:00:37.994Z,99776.75
2022-08-24T00:03:05.598Z,99770.59
2022-08-24T00:05:32.849Z,99770.78
2022-08-24T00:08:00.027Z,99777.63
2022-08-24T00:10:27.478Z,99781.56
2022-08-24T00:12:54.644Z,99787.97
2022-08-24T00:15:21.861Z,99776.94
2022-08-24T00:17:49.315Z,99783.00
2022-08-24T00:20:16.817Z,99787.25
2022-08-24T00:22:44.042Z,99781.75
2022-08-24T00:25:12.278Z,99771.63
2022-08-24T00:27:39.958Z,99773.50
2022-08-24T00:30:08.482Z,99773.94
2022-08-24T00:32:37.829Z,99769.69
2022-08-24T00:35:05.649Z,99776.91
2022-08-24T00:37:34.491Z,99773.50
2022-08-24T00:40:04.185Z,99769.81
2022-08-24T00:42:31.395Z,99767.25
2022-08-24T00:44:58.604Z,99768.53
2022-08-24T00:47:27.860Z,99773.59
2022-08-24T00:49:56.811Z,99769.81
2022-08-24T00:52:43.939Z,99769.06
2022-08-24T00:55:13.396Z,99778.56
2022-08-24T00:57:41.968Z,99775.53
2022-08-24T01:00:11.282Z,99771.00
2022-08-24T01:02:41.554Z,99766.72
2022-08-24T01:05:09.122Z,99764.87
2022-08-24T01:07:36.934Z,99757.16
2022-08-24T01:10:06.178Z,99751.63
2022-08-24T01:12:33.525Z,99750.53
2022-08-24T01:15:01.010Z,99748.69
2022-08-24T01:17:46.992Z,99756.91
2022-08-24T01:20:14.770Z,99755.69
2022-08-24T01:23:20.963Z,99753.34
2022-08-24T01:25:48.137Z,99754.94
2022-08-24T01:28:17.085Z,99761.44
2022-08-24T01:30:52.871Z,99773.59
2022-08-24T01:33:25.774Z,99765.72
2022-08-24T01:36:11.675Z,99773.06
2022-08-24T01:38:39.101Z,99774.31
2022-08-24T01:41:06.510Z,99777.50
2022-08-24T01:43:37.328Z,99775.19
2022-08-24T01:46:06.159Z,99774.75
2022-08-24T01:48:33.766Z,99783.41
2022-08-24T01:51:00.954Z,99794.50
2022-08-24T01:53:28.442Z,99793.34
2022-08-24T01:55:55.760Z,99791.25
2022-08-24T01:58:22.953Z,99798.28
2022-08-24T02:00:50.425Z,99792.88
2022-08-24T02:03:17.911Z,99796.50
2022-08-24T02:05:45.534Z,99800.72
2022-08-24T02:08:18.127Z,99796.41
2022-08-24T02:10:52.962Z,99795.28
2022-08-24T02:13:24.296Z,99791.81
2022-08-24T02:15:53.062Z,99793.56
2022-08-24T02:18:20.366Z,99800.53
2022-08-24T02:20:47.947Z,99799.41
2022-08-24T02:23:15.136Z,99800.19
2022-08-24T02:25:42.331Z,99800.72
2022-08-24T02:28:09.802Z,99798.62
2022-08-24T02:30:36.996Z,99786.84
2022-08-24T02:33:04.393Z,99796.09
2022-08-24T02:35:31.978Z,99800.72
2022-08-24T02:37:59.373Z,99802.37
2022-08-24T02:40:27.303Z,99795.56
2022-08-24T02:42:55.712Z,99798.91
2022-08-24T02:45:23.040Z,99802.28
2022-08-24T02:47:50.269Z,99807.53
2022-08-24T02:50:18.906Z,99807.53
2022-08-24T02:52:46.273Z,99803.28
2022-08-24T02:55:15.446Z,99810.78
2022-08-24T02:57:48.113Z,99799.69
2022-08-24T03:00:16.675Z,99807.22
2022-08-24T03:02:45.659Z,99803.37
2022-08-24T03:05:14.335Z,99803.37
2022-08-24T03:07:43.033Z,99808.81
2022-08-24T03:10:10.665Z,99803.69
2022-08-24T03:12:38.630Z,99798.91
2022-08-24T03:15:06.754Z,99793.63
2022-08-24T03:17:35.131Z,99797.09
2022-08-24T03:20:04.472Z,99804.34
2022-08-24T03:22:31.709Z,99800.06
2022-08-24T03:24:58.926Z,99798.34
2022-08-24T03:27:26.537Z,99804.50
2022-08-24T03:29:53.848Z,99795.66
2022-08-24T03:32:21.800Z,99792.75
2022-08-24T03:34:49.890Z,99806.66
2022-08-24T03:37:18.266Z,99803.47
2022-08-24T03:39:47.682Z,99799.12
2022-08-24T03:42:15.162Z,99804.13
2022-08-24T03:44:43.004Z,99795.97
2022-08-24T03:47:10.664Z,99805.66
2022-08-24T03:49:39.362Z,99798.56
2022-08-24T03:52:06.659Z,99799.22
2022-08-24T03:54:35.461Z,99801.56
2022-08-24T03:57:03.114Z,99801.81
2022-08-24T03:59:31.670Z,99799.12
2022-08-24T04:01:59.115Z,99802.16
2022-08-24T04:04:26.705Z,99810.22
2022-08-24T04:06:53.885Z,99798.41
2022-08-24T04:09:21.384Z,99800.56
2022-08-24T04:11:51.842Z,99803.00
2022-08-24T04:14:26.905Z,99811.59
2022-08-24T04:16:57.527Z,99810.09
2022-08-24T04:19:26.795Z,99802.91
2022-08-24T04:21:57.410Z,99805.06
2022-08-24T04:24:25.421Z,99805.72
2022-08-24T04:26:52.746Z,99802.00
2022-08-24T04:29:20.465Z,99799.12
2022-08-24T04:31:48.519Z,99800.72
2022-08-24T04:34:16.656Z,99798.72
2022-08-24T04:36:45.063Z,99799.03
2022-08-24T04:39:12.835Z,99797.88
2022-08-24T04:41:42.719Z,99800.12
2022-08-24T04:44:10.157Z,99798.84
2022-08-24T04:46:38.923Z,99798.62
2022-08-24T04:49:06.143Z,99800.94
2022-08-24T04:51:36.796Z,99795.75
2022-08-24T04:54:05.181Z,99800.31
2022-08-24T04:56:32.389Z,99797.09
2022-08-24T04:59:00.152Z,99810.81
2022-08-24T05:01:28.687Z,99818.94
2022-08-24T05:03:56.058Z,99809.94
2022-08-24T05:06:24.933Z,99805.63
2022-08-24T05:08:53.876Z,99801.41
2022-08-24T05:11:21.926Z,99797.97
2022-08-24T05:13:51.585Z,99795.34
2022-08-24T05:16:19.061Z,99797.09
2022-08-24T05:18:47.018Z,99787.75
2022-08-24T05:21:18.590Z,99799.25
2022-08-24T05:23:46.839Z,99803.19
2022-08-24T05:26:19.533Z,99809.19
2022-08-24T05:28:47.793Z,99803.78
2022-08-24T05:31:16.527Z,99807.00
2022-08-24T05:33:43.991Z,99799.78
2022-08-24T05:36:18.920Z,99806.47
2022-08-24T05:38:46.705Z,99810.53
2022-08-24T05:41:15.721Z,99810.25
2022-08-24T05:43:44.217Z,99808.16
2022-08-24T05:46:11.880Z,99813.56
2022-08-24T05:48:39.426Z,99807.75
2022-08-24T05:51:10.716Z,99799.56
2022-08-24T05:53:41.892Z,99810.13
2022-08-24T05:56:11.008Z,99810.91
2022-08-24T05:58:38.492Z,99813.44
2022-08-24T06:01:10.359Z,99808.75
2022-08-24T06:03:38.717Z,99806.25
2022-08-24T06:06:07.678Z,99808.75
2022-08-24T06:08:41.502Z,99798.19
2022-08-24T06:11:09.958Z,99801.78
2022-08-24T06:13:37.948Z,99793.03
2022-08-24T06:16:25.359Z,99801.41
2022-08-24T06:18:53.876Z,99799.47
2022-08-24T06:21:23.105Z,99802.34
2022-08-24T06:23:51.248Z,99812.44
2022-08-24T06:26:38.652Z,99810.56
2022-08-24T06:29:06.182Z,99819.28
2022-08-24T06:31:39.428Z,99813.84
2022-08-24T06:34:07.823Z,99816.16
2022-08-24T06:36:35.526Z,99817.97
2022-08-24T06:39:03.180Z,99822.34
2022-08-24T06:41:30.736Z,99821.84
2022-08-24T06:43:59.336Z,99822.38
2022-08-24T06:46:31.994Z,99819.75
2022-08-24T06:49:00.979Z,99822.94
2022-08-24T06:51:28.463Z,99821.38
2022-08-24T06:53:58.860Z,99816.81
2022-08-24T06:56:26.575Z,99819.50
2022-08-24T06:58:53.949Z,99819.88
2022-08-24T07:01:22.540Z,99820.88
2022-08-24T07:03:50.146Z,99826.03
2022-08-24T07:06:19.009Z,99825.28
2022-08-24T07:08:46.640Z,99823.38
2022-08-24T07:11:15.000Z,99830.56
2022-08-24T07:13:42.503Z,99828.06
2022-08-24T07:16:10.243Z,99840.87
2022-08-24T07:18:40.867Z,99845.91
2022-08-24T07:21:09.400Z,99843.84
2022-08-24T07:23:42.148Z,99855.28
2022-08-24T07:26:11.410Z,99852.94
2022-08-24T07:28:53.077Z,99848.87
2022-08-24T07:31:21.366Z,99854.63
2022-08-24T07:33:49.429Z,99860.88
2022-08-24T07:36:22.444Z,99864.94
2022-08-24T07:38:52.499Z,99857.28
2022-08-24T07:41:40.371Z,99866.03
2022-08-24T07:44:09.035Z,99856.16
2022-08-24T07:46:36.484Z,99872.16
2022-08-24T07:49:11.900Z,99865.56
2022-08-24T07:51:48.423Z,99867.09
2022-08-24T07:54:15.656Z,99861.19
2022-08-24T07:56:43.084Z,99863.44
2022-08-24T07:59:13.222Z,99865.00
2022-08-24T08:01:41.565Z,99874.81
2022-08-24T08:04:10.467Z,99873.34
2022-08-24T08:06:37.697Z,99875.56
2022-08-24T08:09:05.451Z,99880.06
2022-08-24T08:11:33.189Z,99873.56
2022-08-24T08:14:01.469Z,99872.28
2022-08-24T08:16:29.909Z,99885.31
2022-08-24T08:19:12.734Z,99878.16
2022-08-24T08:22:03.337Z,99884.94
2022-08-24T08:24:31.817Z,99885.19
2022-08-24T08:27:00.872Z,99879.06
2022-08-24T08:29:28.377Z,99880.63
2022-08-24T08:31:56.257Z,99881.88
2022-08-24T08:34:23.446Z,99881.69
2022-08-24T08:36:51.138Z,99885.06
2022-08-24T08:39:19.172Z,99889.09
2022-08-24T08:41:49.664Z,99885.78
2022-08-24T08:44:22.076Z,99892.97
2022-08-24T08:46:49.285Z,99899.53
2022-08-24T08:49:25.668Z,99895.28
2022-08-24T08:51:56.742Z,99896.44
2022-08-24T08:54:39.180Z,99892.59
2022-08-24T08:57:17.308Z,99889.88
2022-08-24T08:59:49.515Z,99882.31
2022-08-24T09:02:23.326Z,99893.75
2022-08-24T09:04:58.703Z,99889.00
2022-08-24T09:07:27.701Z,99892.50
2022-08-24T09:09:56.082Z,99892.50
2022-08-24T09:12:42.518Z,99897.34
2022-08-24T09:15:33.189Z,99897.19
2022-08-24T09:18:00.439Z,99899.12
2022-08-24T09:20:29.056Z,99892.97
2022-08-24T09:23:02.085Z,99885.34
2022-08-24T09:25:36.300Z,99888.84
2022-08-24T09:28:13.070Z,99880.59
2022-08-24T09:30:57.705Z,99892.19
2022-08-24T09:33:51.089Z,99885.66
2022-08-24T09:36:19.335Z,99880.63
2022-08-24T09:39:00.093Z,99884.81
2022-08-24T09:41:36.638Z,99877.06
2022-08-24T09:44:03.839Z,99873.91
2022-08-24T09:46:43.329Z,99881.41
2022-08-24T09:49:29.281Z,99874.94
2022-08-24T09:51:56.782Z,99871.50
2022-08-24T09:54:28.973Z,99868.84
2022-08-24T09:57:11.650Z,99864.22
2022-08-24T10:00:12.117Z,99867.47
2022-08-24T10:02:54.478Z,99856.81
2022-08-24T10:05:22.029Z,99853.97
2022-08-24T10:08:03.494Z,99858.53
2022-08-24T10:10:40.149Z,99856.06
2022-08-24T10:13:10.857Z,99860.78
2022-08-24T10:15:48.154Z,99862.81
2022-08-24T10:18:24.194Z,99854.59
2022-08-24T10:20:54.509Z,99860.06
2022-08-24T10:23:43.078Z,99858.53
2022-08-24T10:26:17.458Z,99860.38
2022-08-24T10:28:49.288Z,99856.16
2022-08-24T10:31:35.740Z,99866.06
2022-08-24T10:34:30.305Z,99865.41
2022-08-24T10:37:10.014Z,99860.81
2022-08-24T10:40:01.994Z,99865.78
2022-08-24T10:42:48.894Z,99866.53
2022-08-24T10:45:34.095Z,99870.34
2022-08-24T10:48:13.474Z,99871.19
2022-08-24T10:50:46.422Z,99870.72
2022-08-24T10:53:21.187Z,99869.47
2022-08-24T10:55:51.997Z,99866.88
2022-08-24T10:58:22.412Z,99865.47
2022-08-24T11:00:49.823Z,99866.50
2022-08-24T11:03:27.973Z,99868.97
2022-08-24T11:05:56.359Z,99876.00
2022-08-24T11:08:23.541Z,99868.50
2022-08-24T11:11:10.392Z,99874.19
2022-08-24T11:13:39.441Z,99870.50
2022-08-24T11:16:06.864Z,99877.06
2022-08-24T11:18:53.333Z,99868.78
2022-08-24T11:21:41.691Z,99868.03
2022-08-24T11:24:14.482Z,99873.66
2022-08-24T11:27:14.468Z,99870.91
2022-08-24T11:29:51.145Z,99879.37
2022-08-24T11:32:26.226Z,99864.97
2022-08-24T11:34:53.455Z,99881.53
2022-08-24T11:37:27.041Z,99875.06
2022-08-24T11:39:56.409Z,99878.81
2022-08-24T11:42:36.206Z,99880.50
2022-08-24T11:45:06.957Z,99888.28
2022-08-24T11:47:34.345Z,99886.37
2022-08-24T11:50:04.166Z,99882.62
2022-08-24T11:52:37.549Z,99883.84
2022-08-24T11:55:46.618Z,99887.13
2022-08-24T11:58:33.130Z,99885.41
2022-08-24T12:01:05.573Z,99876.81
2022-08-24T12:03:33.201Z,99886.41
2022-08-24T12:06:00.357Z,99883.16
2022-08-24T12:08:27.710Z,99889.88
2022-08-24T12:11:04.166Z,99896.19
2022-08-24T12:13:52.866Z,99914.97
2022-08-24T12:16:56.021Z,99910.63
2022-08-24T12:19:36.921Z,99917.63
2022-08-24T12:22:05.891Z,99917.78
2022-08-24T12:24:40.123Z,99924.78
2022-08-24T12:27:13.243Z,99928.22
2022-08-24T12:29:40.382Z,99921.31
2022-08-24T12:32:12.596Z,99915.59
2022-08-24T12:34:58.403Z,99922.47
2022-08-24T12:37:52.560Z,99929.22
2022-08-24T12:40:34.768Z,99921.31
2022-08-24T12:43:13.188Z,99916.84
2022-08-24T12:45:40.604Z,99917.75
2022-08-24T12:48:12.205Z,99922.94
2022-08-24T12:50:42.648Z,99934.66
2022-08-24T12:53:13.553Z,99924.22
2022-08-24T12:55:52.341Z,99921.03
2022-08-24T12:58:34.541Z,99914.16
2022-08-24T13:01:06.065Z,99911.03
2022-08-24T13:03:35.100Z,99907.69
2022-08-24T13:06:04.141Z,99902.94
2022-08-24T13:08:41.987Z,99894.47
2022-08-24T13:11:13.652Z,99891.75
2022-08-24T13:13:42.823Z,99884.16
2022-08-24T13:16:10.792Z,99894.00
2022-08-24T13:18:50.541Z,99896.13
2022-08-24T13:21:35.067Z,99904.47
2022-08-24T13:24:21.243Z,99894.75
2022-08-24T13:26:48.706Z,99888.75
2022-08-24T13:29:15.912Z,99875.88
2022-08-24T13:31:48.065Z,99891.78
2022-08-24T13:34:16.819Z,99890.41
2022-08-24T13:36:47.216Z,99890.41
2022-08-24T13:39:26.542Z,99886.84
2022-08-24T13:42:10.848Z,99890.34
2022-08-24T13:44:41.041Z,99902.22
2022-08-24T13:47:26.569Z,99897.84
2022-08-24T13:50:08.945Z,99897.75
2022-08-24T13:52:42.924Z,99899.81
2022-08-24T13:55:33.479Z,99897.91
2022-08-24T13:58:04.225Z,99911.69
2022-08-24T14:00:38.847Z,99909.44
2022-08-24T14:03:27.065Z,99915.28
2022-08-24T14:06:00.951Z,99907.94
2022-08-24T14:08:40.712Z,99915.00
2022-08-24T14:11:08.020Z,99911.19
2022-08-24T14:13:35.437Z,99901.50
2022-08-24T14:16:25.477Z,99902.75
2022-08-24T14:19:02.324Z,99891.84
2022-08-24T14:21:55.694Z,99898.22
2022-08-24T14:24:41.375Z,99907.16
2022-08-24T14:27:29.943Z,99916.03
2022-08-24T14:30:17.285Z,99915.00
2022-08-24T14:33:04.994Z,99909.69
2022-08-24T14:35:41.851Z,99907.47
2022-08-24T14:38:22.804Z,99914.19
2022-08-24T14:40:56.158Z,99901.72
2022-08-24T14:43:30.125Z,99907.47
2022-08-24T14:46:18.661Z,99912.44
2022-08-24T14:48:48.861Z,99909.53
2022-08-24T14:51:22.376Z,99910.78
2022-08-24T14:53:49.532Z,99905.12
2022-08-24T14:56:42.602Z,99903.25
2022-08-24T14:59:13.134Z,99899.91
2022-08-24T15:01:42.496Z,99900.13
2022-08-24T15:04:37.111Z,99892.72
2022-08-24T15:07:21.024Z,99889.19
2022-08-24T15:09:48.412Z,99893.87
2022-08-24T15:12:34.318Z,99887.75
2022-08-24T15:15:09.186Z,99894.78
2022-08-24T15:18:06.739Z,99900.19
2022-08-24T15:20:40.192Z,99899.34
2022-08-24T15:23:10.422Z,99904.19
2022-08-24T15:25:45.566Z,99900.56
2022-08-24T15:28:14.811Z,99906.03
2022-08-24T15:30:42.214Z,99908.06
2022-08-24T15:33:09.504Z,99901.22
2022-08-24T15:35:39.010Z,99905.72
2022-08-24T15:38:16.583Z,99900.09
2022-08-24T15:40:46.178Z,99899.12
2022-08-24T15:43:13.863Z,99901.84
2022-08-24T15:45:43.389Z,99893.38
2022-08-24T15:48:10.918Z,99898.75
2022-08-24T15:50:49.151Z,99890.91
2022-08-24T15:53:19.578Z,99891.63
2022-08-24T15:55:47.901Z,99886.16
2022-08-24T15:58:20.132Z,99894.34
2022-08-24T16:01:06.346Z,99902.22
2022-08-24T16:03:46.448Z,99896.06
2022-08-24T16:06:19.546Z,99894.03
2022-08-24T16:08:53.423Z,99891.06
2022-08-24T16:11:22.014Z,99892.44
2022-08-24T16:13:50.371Z,99886.75
2022-08-24T16:16:17.573Z,99885.94
2022-08-24T16:18:55.384Z,99882.13
2022-08-24T16:21:34.655Z,99880.91
2022-08-24T16:24:03.529Z,99876.81
2022-08-24T16:26:33.034Z,99880.25
2022-08-24T16:29:00.181Z,99878.94
2022-08-24T16:31:44.064Z,99876.66
2022-08-24T16:34:19.569Z,99870.75
2022-08-24T16:36:47.132Z,99877.00
2022-08-24T16:39:15.149Z,99868.69
2022-08-24T16:41:43.014Z,99871.37
2022-08-24T16:44:10.752Z,99870.91
2022-08-24T16:46:38.559Z,99864.16
2022-08-24T16:49:06.021Z,99859.78
2022-08-24T16:51:45.143Z,99860.88
2022-08-24T16:54:13.025Z,99867.06
2022-08-24T16:56:42.204Z,99876.66
2022-08-24T16:59:14.857Z,99877.31
2022-08-24T17:01:42.356Z,99879.34
2022-08-24T17:04:09.566Z,99888.28
2022-08-24T17:06:36.738Z,99893.59
2022-08-24T17:09:04.266Z,99893.44
2022-08-24T17:11:33.275Z,99892.00
2022-08-24T17:14:00.427Z,99899.41
2022-08-24T17:16:27.952Z,99899.66
2022-08-24T17:18:57.328Z,99898.72
2022-08-24T17:21:24.867Z,99896.34
2022-08-24T17:23:52.505Z,99903.53
2022-08-24T17:26:21.951Z,99907.84
2022-08-24T17:28:49.897Z,99899.31
2022-08-24T17:31:17.446Z,99906.12
2022-08-24T17:33:44.679Z,99905.03
2022-08-24T17:36:15.617Z,99910.53
2022-08-24T17:38:45.848Z,99917.13
2022-08-24T17:41:14.306Z,99912.44
2022-08-24T17:43:46.004Z,99914.00
2022-08-24T17:46:14.405Z,99913.69
2022-08-24T17:48:45.353Z,99921.62
2022-08-24T17:51:13.580Z,99928.56
2022-08-24T17:53:40.998Z,99926.34
2022-08-24T17:56:08.606Z,99934.75
2022-08-24T17:58:56.002Z,99929.66
2022-08-24T18:01:23.601Z,99937.41
2022-08-24T18:03:51.537Z,99944.34
2022-08-24T18:06:19.461Z,99938.84
2022-08-24T18:08:47.127Z,99941.69
2022-08-24T18:11:14.987Z,99944.28
2022-08-24T18:13:42.306Z,99939.28
2022-08-24T18:16:20.781Z,99940.84
2022-08-24T18:18:49.366Z,99954.16
2022-08-24T18:21:16.607Z,99949.75
2022-08-24T18:23:43.977Z,99942.56
2022-08-24T18:26:11.656Z,99953.03
2022-08-24T18:28:38.843Z,99964.88
2022-08-24T18:31:11.380Z,99965.66
2022-08-24T18:33:44.430Z,99960.34
2022-08-24T18:36:12.118Z,99964.06
2022-08-24T18:38:39.497Z,99959.28
2022-08-24T18:41:06.985Z,99966.84
2022-08-24T18:43:34.266Z,99966.22
2022-08-24T18:46:01.653Z,99970.87
2022-08-24T18:48:29.221Z,99960.94
2022-08-24T18:50:57.498Z,99967.38
2022-08-24T18:53:25.649Z,99969.94
2022-08-24T18:55:53.112Z,99967.88
2022-08-24T18:58:20.851Z,99971.69
2022-08-24T19:00:48.329Z,99975.00
2022-08-24T19:03:24.267Z,99971.44
2022-08-24T19:05:51.715Z,99969.22
2022-08-24T19:08:19.242Z,99972.50
2022-08-24T19:10:46.831Z,99981.13
2022-08-24T19:13:15.632Z,99982.84
2022-08-24T19:15:43.412Z,99984.69
2022-08-24T19:18:14.561Z,99985.19
2022-08-24T19:20:48.474Z,99981.19
2022-08-24T19:23:18.431Z,99980.38
2022-08-24T19:25:46.098Z,99976.75
2022-08-24T19:28:42.804Z,99974.28
2022-08-24T19:31:18.849Z,99983.88
2022-08-24T19:33:49.831Z,99981.13
2022-08-24T19:36:18.194Z,99983.44
2022-08-24T19:38:45.975Z,99984.72
2022-08-24T19:41:14.260Z,99982.44
2022-08-24T19:44:00.627Z,99986.41
2022-08-24T19:46:28.259Z,99986.94
2022-08-24T19:48:56.282Z,99982.69
2022-08-24T19:51:23.703Z,99989.34
2022-08-24T19:53:56.460Z,99996.59
2022-08-24T19:56:24.710Z,99988.28
2022-08-24T19:58:53.155Z,99988.28
2022-08-24T20:01:21.795Z,99993.19
2022-08-24T20:03:49.711Z,99993.97
2022-08-24T20:06:21.149Z,99997.78
2022-08-24T20:08:49.151Z,99994.06
2022-08-24T20:11:17.342Z,100000.06
2022-08-24T20:13:44.785Z,99989.34
2022-08-24T20:16:14.849Z,99994.81
2022-08-24T20:18:42.383Z,99989.03
2022-08-24T20:21:10.241Z,99988.91
2022-08-24T20:23:37.859Z,99985.91
2022-08-24T20:26:06.467Z,99991.84
2022-08-24T20:28:38.463Z,99987.97
2022-08-24T20:31:06.565Z,99991.31
2022-08-24T20:33:34.048Z,99997.19
2022-08-24T20:36:01.331Z,99993.69
2022-08-24T20:38:31.797Z,99994.37
2022-08-24T20:40:59.590Z,99998.66
2022-08-24T20:43:27.346Z,99996.09
2022-08-24T20:45:54.786Z,99996.78
2022-08-24T20:48:25.820Z,99996.94
2022-08-24T20:50:53.031Z,99994.13
2022-08-24T20:53:20.495Z,100004.72
2022-08-24T20:55:48.350Z,100004.31
2022-08-24T20:58:15.726Z,100003.72
2022-08-24T21:00:44.458Z,100007.91
2022-08-24T21:03:15.944Z,100011.59
2022-08-24T21:05:43.613Z,100001.06
2022-08-24T21:08:11.379Z,100008.88
2022-08-24T21:10:39.990Z,100000.78
2022-08-24T21:13:07.445Z,100003.72
2022-08-24T21:15:34.619Z,100010.06
2022-08-24T21:18:03.381Z,100013.44
2022-08-24T21:20:32.906Z,100014.31
2022-08-24T21:23:00.141Z,100010.28
2022-08-24T21:25:27.481Z,100008.78
2022-08-24T21:27:54.920Z,100009.87
2022-08-24T21:30:22.389Z,100017.81
2022-08-24T21:33:08.101Z,100012.25
2022-08-24T21:35:35.775Z,100008.12
2022-08-24T21:38:04.396Z,100008.69
2022-08-24T21:40:31.694Z,100007.66
2022-08-24T21:42:59.214Z,100009.97
2022-08-24T21:45:27.301Z,100010.53
2022-08-24T21:47:54.474Z,100005.03
2022-08-24T21:50:25.524Z,100004.38
2022-08-24T21:52:53.877Z,100005.25
2022-08-24T21:55:21.689Z,100000.28
2022-08-24T21:57:49.501Z,99998.34
2022-08-24T22:00:18.594Z,100004.09
2022-08-24T22:02:46.829Z,100006.44
2022-08-24T22:05:14.734Z,100005.38
2022-08-24T22:07:41.900Z,100011.66
2022-08-24T22:10:28.413Z,100006.16
2022-08-24T22:12:55.579Z,100001.66
2022-08-24T22:15:23.399Z,100003.16
2022-08-24T22:17:52.773Z,99997.84
2022-08-24T22:20:23.336Z,100006.78
2022-08-24T22:22:51.144Z,100003.88
2022-08-24T22:25:18.338Z,100002.00
2022-08-24T22:27:45.882Z,100003.00
2022-08-24T22:30:14.499Z,100008.62
2022-08-24T22:32:41.677Z,99997.88
2022-08-24T22:35:09.069Z,100004.03
2022-08-24T22:37:36.644Z,100005.84
2022-08-24T22:40:04.461Z,100000.03
2022-08-24T22:42:31.808Z,99996.25
2022-08-24T22:44:59.922Z,100001.56
2022-08-24T22:47:27.583Z,100001.31
2022-08-24T22:49:55.075Z,100000.41
2022-08-24T22:52:22.552Z,99999.91
2022-08-24T22:54:49.739Z,99997.59
2022-08-24T22:57:19.940Z,99996.34
2022-08-24T22:59:47.485Z,99986.28
2022-08-24T23:02:15.742Z,99984.50
2022-08-24T23:04:45.771Z,99978.97
2022-08-24T23:07:13.339Z,99981.38
2022-08-24T23:09:44.739Z,99979.41
2022-08-24T23:12:15.835Z,99975.34
2022-08-24T23:14:43.577Z,99978.75
2022-08-24T23:17:10.962Z,99975.56
2022-08-24T23:19:57.154Z,99969.81
2022-08-24T23:22:24.340Z,99965.75
2022-08-24T23:24:53.285Z,99956.53
2022-08-24T23:27:20.600Z,99962.13
2022-08-24T23:29:48.568Z,99959.38
2022-08-24T23:32:17.925Z,99953.22
2022-08-24T23:34:46.372Z,99948.13
2022-08-24T23:37:15.645Z,99952.88
2022-08-24T23:39:43.092Z,99960.31
2022-08-24T23:42:10.574Z,99949.47
2022-08-24T23:44:39.069Z,99950.81
2022-08-24T23:47:06.825Z,99951.66
2022-08-24T23:49:34.223Z,99951.56
2022-08-24T23:52:01.413Z,99955.34
2022-08-24T23:54:29.075Z,99947.63
2022-08-24T23:56:56.583Z,99948.34
2022-08-24T23:59:25.284Z,99944.34
